Terminal Aerodrome Forecast
Issued by NWS Denver/Boulder, CO

Home | Current Version | Previous Version | Text Only | Print | Product List | Glossary On
Versions: 1 2 3 4 5 6 7 8 9 10 11 12 13 14 15 16 17 18 19 20 21 22 23 24 25 26 27 28 29 30 31 32 33 34 35 36 37 38 39 40 41 42 43 44 45 46 47 48 49 50
104
FTUS45 KBOU 270425 AAC
TAFDEN
TAF AMD
KDEN 270425Z 2704/2806 15014KT P6SM FEW080 SCT120 SCT220
     FM270500 34006KT P6SM FEW120 SCT200
     FM270700 22012KT P6SM FEW220
     FM271400 24006KT P6SM VCFG FEW003 SCT080
      TEMPO 2714/2716 1SM BR BKN003
     FM271800 35007KT P6SM SCT080 BKN180
     FM280200 12008KT P6SM SCT070 SCT200=

USA.gov is the U.S. government's official web portal to all federal, state and local government web resources and services.